Terminal Aerodrome Forecast
Issued by NWS Wilmington, NC

Home | Current Version | Previous Version | Text Only | Print | Product List | Glossary On
Versions: 1 2 3 4 5 6 7 8 9 10 11 12 13
000
FTUS42 KILM 211228 CCA
TAFLBT
TAF COR
KLBT 211228Z 2112/2212 00000KT P6SM FEW200
      TEMPO 2112/2113 2SM BR
     FM211600 06005KT P6SM BKN040
     FM220000 07005KT P6SM VCSH BKN030
     FM220900 32005KT 3SM BR BKN006=

USA.gov is the U.S. government's official web portal to all federal, state and local government web resources and services.